NVA1003 MPCE-MPWN
Flight info
| Callsign | NVA1003 |
|---|---|
| Flight time | 0h 56m |
| Altitude | 11500 |
| Route | RHT Q19 TBG A574 REMAL |
| Aircraft | PA31/L-SDFGRY/S |
Departure
| Time | 2026-05-05 21:16 |
|---|---|
| Airport | Alonso Valderrama Airport (MPCE) |
Arrival
| Time | 2026-05-05 22:12 |
|---|---|
| Airport | Wannukandi Airport (MPWN) |
| Time | Latitude | Longitude | Altitude | Speed | Heading |
|---|---|---|---|---|---|
| 2026-05-05 21:11 | 7.98181 | -80.41009 | 28 ft | 0 kts | 280° |
| 2026-05-05 21:14 | 7.98181 | -80.41013 | 28 ft | 3 kts | 267° |
| 2026-05-05 21:14 | 7.98154 | -80.41026 | 28 ft | 17 kts | 200° |
| 2026-05-05 21:14 | 7.98132 | -80.41087 | 27 ft | 6 kts | 280° |
| 2026-05-05 21:14 | 7.98150 | -80.41110 | 27 ft | 0 kts | 9° |
| 2026-05-05 21:15 | 7.98176 | -80.41105 | 27 ft | 15 kts | 9° |
| 2026-05-05 21:16 | 7.98527 | -80.41039 | 29 ft | 86 kts | 12° |
| 2026-05-05 21:16 | 7.99247 | -80.40897 | 216 ft | 111 kts | 10° |
| 2026-05-05 21:16 | 7.99997 | -80.40803 | 608 ft | 118 kts | 13° |
| 2026-05-05 21:16 | 8.00765 | -80.40409 | 985 ft | 121 kts | 43° |
| 2026-05-05 21:17 | 8.01176 | -80.39612 | 1235 ft | 134 kts | 76° |
| 2026-05-05 21:17 | 8.01573 | -80.38792 | 1573 ft | 138 kts | 44° |
| 2026-05-05 21:17 | 8.02439 | -80.38229 | 1750 ft | 150 kts | 32° |
| 2026-05-05 21:17 | 8.03343 | -80.37567 | 1871 ft | 162 kts | 36° |
| 2026-05-05 21:18 | 8.04288 | -80.36868 | 2027 ft | 168 kts | 36° |
| 2026-05-05 21:18 | 8.05251 | -80.36169 | 2252 ft | 165 kts | 34° |
| 2026-05-05 21:18 | 8.06198 | -80.35514 | 2461 ft | 162 kts | 33° |
| 2026-05-05 21:18 | 8.07152 | -80.34880 | 2666 ft | 161 kts | 32° |
| 2026-05-05 21:19 | 8.08124 | -80.34255 | 2869 ft | 160 kts | 31° |
| 2026-05-05 21:19 | 8.09083 | -80.33661 | 3065 ft | 160 kts | 30° |
| 2026-05-05 21:19 | 8.10065 | -80.33074 | 3262 ft | 160 kts | 30° |
| 2026-05-05 21:19 | 8.10965 | -80.32554 | 3440 ft | 159 kts | 29° |
| 2026-05-05 21:20 | 8.11971 | -80.31991 | 3637 ft | 159 kts | 28° |
| 2026-05-05 21:20 | 8.12968 | -80.31454 | 3829 ft | 159 kts | 27° |
| 2026-05-05 21:20 | 8.13961 | -80.30936 | 4018 ft | 159 kts | 26° |
| 2026-05-05 21:20 | 8.14956 | -80.30434 | 4204 ft | 159 kts | 26° |
| 2026-05-05 21:21 | 8.15887 | -80.29831 | 4382 ft | 159 kts | 47° |
| 2026-05-05 21:21 | 8.16621 | -80.28966 | 4570 ft | 159 kts | 45° |
| 2026-05-05 21:21 | 8.17403 | -80.28164 | 4754 ft | 158 kts | 44° |
| 2026-05-05 21:21 | 8.18209 | -80.27385 | 4937 ft | 158 kts | 42° |
| 2026-05-05 21:22 | 8.19029 | -80.26641 | 5116 ft | 158 kts | 40° |
| 2026-05-05 21:22 | 8.19877 | -80.25910 | 5296 ft | 158 kts | 39° |
| 2026-05-05 21:22 | 8.20744 | -80.25198 | 5476 ft | 158 kts | 37° |
| 2026-05-05 21:22 | 8.21601 | -80.24513 | 5650 ft | 158 kts | 40° |
| 2026-05-05 21:23 | 8.22449 | -80.23783 | 5826 ft | 157 kts | 39° |
| 2026-05-05 21:23 | 8.23300 | -80.23052 | 6002 ft | 157 kts | 39° |
| 2026-05-05 21:23 | 8.24131 | -80.22341 | 6172 ft | 157 kts | 39° |
| 2026-05-05 21:23 | 8.25006 | -80.21679 | 6342 ft | 157 kts | 33° |
| 2026-05-05 21:24 | 8.25918 | -80.21053 | 6511 ft | 156 kts | 34° |
| 2026-05-05 21:24 | 8.26822 | -80.20422 | 6678 ft | 156 kts | 34° |
| 2026-05-05 21:24 | 8.27718 | -80.19791 | 6843 ft | 156 kts | 34° |
| 2026-05-05 21:24 | 8.28609 | -80.19160 | 7007 ft | 156 kts | 34° |
| 2026-05-05 21:25 | 8.29515 | -80.18514 | 7172 ft | 156 kts | 34° |
| 2026-05-05 21:25 | 8.30404 | -80.17877 | 7333 ft | 155 kts | 34° |
| 2026-05-05 21:25 | 8.31291 | -80.17239 | 7492 ft | 155 kts | 34° |
| 2026-05-05 21:25 | 8.32161 | -80.16613 | 7645 ft | 154 kts | 35° |
| 2026-05-05 21:26 | 8.33057 | -80.15966 | 7802 ft | 154 kts | 35° |
| 2026-05-05 21:26 | 8.33929 | -80.15336 | 7953 ft | 154 kts | 34° |
| 2026-05-05 21:26 | 8.34811 | -80.14697 | 8104 ft | 153 kts | 35° |
| 2026-05-05 21:26 | 8.35678 | -80.14069 | 8251 ft | 153 kts | 35° |
| 2026-05-05 21:27 | 8.36561 | -80.13429 | 8400 ft | 153 kts | 35° |
| 2026-05-05 21:27 | 8.37399 | -80.12753 | 8541 ft | 153 kts | 48° |
| 2026-05-05 21:27 | 8.38040 | -80.11893 | 8683 ft | 153 kts | 52° |
| 2026-05-05 21:27 | 8.38707 | -80.11037 | 8827 ft | 153 kts | 50° |
| 2026-05-05 21:28 | 8.39371 | -80.10188 | 8968 ft | 153 kts | 51° |
| 2026-05-05 21:28 | 8.40034 | -80.09335 | 9109 ft | 153 kts | 51° |
| 2026-05-05 21:28 | 8.40691 | -80.08482 | 9247 ft | 153 kts | 51° |
| 2026-05-05 21:28 | 8.41340 | -80.07636 | 9383 ft | 152 kts | 51° |
| 2026-05-05 21:29 | 8.42001 | -80.06770 | 9521 ft | 152 kts | 51° |
| 2026-05-05 21:29 | 8.42654 | -80.05913 | 9656 ft | 152 kts | 51° |
| 2026-05-05 21:29 | 8.43306 | -80.05053 | 9790 ft | 152 kts | 51° |
| 2026-05-05 21:29 | 8.43945 | -80.04208 | 9920 ft | 152 kts | 51° |
| 2026-05-05 21:30 | 8.44595 | -80.03350 | 10051 ft | 152 kts | 51° |
| 2026-05-05 21:30 | 8.45230 | -80.02509 | 10179 ft | 151 kts | 51° |
| 2026-05-05 21:30 | 8.45816 | -80.01614 | 10304 ft | 152 kts | 58° |
| 2026-05-05 21:30 | 8.46488 | -80.00791 | 10432 ft | 151 kts | 46° |
| 2026-05-05 21:31 | 8.47176 | -79.99988 | 10556 ft | 151 kts | 48° |
| 2026-05-05 21:31 | 8.47851 | -79.99170 | 10679 ft | 151 kts | 49° |
| 2026-05-05 21:31 | 8.48517 | -79.98339 | 10803 ft | 151 kts | 50° |
| 2026-05-05 21:31 | 8.49166 | -79.97508 | 10924 ft | 151 kts | 51° |
| 2026-05-05 21:32 | 8.49808 | -79.96670 | 11044 ft | 151 kts | 51° |
| 2026-05-05 21:32 | 8.50445 | -79.95827 | 11163 ft | 151 kts | 51° |
| 2026-05-05 21:32 | 8.51051 | -79.95013 | 11276 ft | 150 kts | 52° |
| 2026-05-05 21:32 | 8.51686 | -79.94154 | 11395 ft | 150 kts | 52° |
| 2026-05-05 21:33 | 8.52315 | -79.93295 | 11512 ft | 150 kts | 52° |
| 2026-05-05 21:33 | 8.52955 | -79.92417 | 11514 ft | 160 kts | 52° |
| 2026-05-05 21:33 | 8.53649 | -79.91463 | 11514 ft | 174 kts | 52° |
| 2026-05-05 21:33 | 8.54390 | -79.90432 | 11512 ft | 183 kts | 53° |
| 2026-05-05 21:34 | 8.55166 | -79.89349 | 11510 ft | 188 kts | 53° |
| 2026-05-05 21:34 | 8.55949 | -79.88258 | 11509 ft | 191 kts | 53° |
| 2026-05-05 21:34 | 8.56737 | -79.87157 | 11508 ft | 193 kts | 53° |
| 2026-05-05 21:34 | 8.57507 | -79.86031 | 11614 ft | 190 kts | 55° |
| 2026-05-05 21:35 | 8.58293 | -79.84913 | 11646 ft | 193 kts | 53° |
| 2026-05-05 21:35 | 8.59111 | -79.83778 | 11650 ft | 196 kts | 53° |
| 2026-05-05 21:35 | 8.59928 | -79.82652 | 11650 ft | 198 kts | 53° |
| 2026-05-05 21:35 | 8.60755 | -79.81503 | 11650 ft | 199 kts | 53° |
| 2026-05-05 21:36 | 8.61573 | -79.80362 | 11650 ft | 199 kts | 54° |
| 2026-05-05 21:36 | 8.62405 | -79.79202 | 11650 ft | 199 kts | 54° |
| 2026-05-05 21:36 | 8.63212 | -79.78075 | 11649 ft | 198 kts | 54° |
| 2026-05-05 21:36 | 8.64031 | -79.76926 | 11649 ft | 196 kts | 54° |
| 2026-05-05 21:37 | 8.64841 | -79.75790 | 11648 ft | 192 kts | 54° |
| 2026-05-05 21:37 | 8.65628 | -79.74689 | 11649 ft | 190 kts | 54° |
| 2026-05-05 21:37 | 8.66415 | -79.73585 | 11649 ft | 189 kts | 54° |
| 2026-05-05 21:37 | 8.67196 | -79.72490 | 11649 ft | 189 kts | 54° |
| 2026-05-05 21:38 | 8.67977 | -79.71394 | 11649 ft | 188 kts | 54° |
| 2026-05-05 21:38 | 8.68748 | -79.70311 | 11649 ft | 188 kts | 54° |
| 2026-05-05 21:38 | 8.69525 | -79.69220 | 11649 ft | 188 kts | 54° |
| 2026-05-05 21:38 | 8.70295 | -79.68138 | 11649 ft | 188 kts | 54° |
| 2026-05-05 21:39 | 8.71080 | -79.67035 | 11649 ft | 187 kts | 54° |
| 2026-05-05 21:39 | 8.71849 | -79.65955 | 11649 ft | 187 kts | 54° |
| 2026-05-05 21:39 | 8.72622 | -79.64868 | 11649 ft | 187 kts | 54° |
| 2026-05-05 21:39 | 8.73394 | -79.63784 | 11650 ft | 188 kts | 54° |
| 2026-05-05 21:40 | 8.74176 | -79.62685 | 11650 ft | 188 kts | 54° |
| 2026-05-05 21:40 | 8.74957 | -79.61588 | 11650 ft | 189 kts | 54° |
| 2026-05-05 21:40 | 8.75745 | -79.60480 | 11650 ft | 189 kts | 54° |
| 2026-05-05 21:40 | 8.76524 | -79.59384 | 11650 ft | 190 kts | 54° |
| 2026-05-05 21:41 | 8.77317 | -79.58270 | 11649 ft | 190 kts | 54° |
| 2026-05-05 21:41 | 8.78090 | -79.57182 | 11649 ft | 190 kts | 54° |
| 2026-05-05 21:41 | 8.78884 | -79.56066 | 11649 ft | 190 kts | 54° |
| 2026-05-05 21:41 | 8.79669 | -79.54961 | 11649 ft | 190 kts | 54° |
| 2026-05-05 21:42 | 8.80406 | -79.53828 | 11646 ft | 190 kts | 65° |
| 2026-05-05 21:42 | 8.80870 | -79.52549 | 11649 ft | 190 kts | 72° |
| 2026-05-05 21:42 | 8.81131 | -79.51211 | 11650 ft | 190 kts | 81° |
| 2026-05-05 21:42 | 8.81344 | -79.49860 | 11649 ft | 190 kts | 81° |
| 2026-05-05 21:43 | 8.81549 | -79.48518 | 11649 ft | 190 kts | 81° |
| 2026-05-05 21:43 | 8.81856 | -79.47195 | 11652 ft | 190 kts | 69° |
| 2026-05-05 21:43 | 8.82343 | -79.45919 | 11650 ft | 190 kts | 69° |
| 2026-05-05 21:43 | 8.82810 | -79.44649 | 11650 ft | 190 kts | 69° |
| 2026-05-05 21:44 | 8.83283 | -79.43361 | 11649 ft | 190 kts | 69° |
| 2026-05-05 21:44 | 8.83744 | -79.42093 | 11649 ft | 190 kts | 69° |
| 2026-05-05 21:44 | 8.84209 | -79.40806 | 11649 ft | 190 kts | 70° |
| 2026-05-05 21:44 | 8.84669 | -79.39526 | 11649 ft | 190 kts | 70° |
| 2026-05-05 21:45 | 8.85129 | -79.38240 | 11649 ft | 190 kts | 70° |
| 2026-05-05 21:45 | 8.85580 | -79.36974 | 11649 ft | 190 kts | 70° |
| 2026-05-05 21:45 | 8.86041 | -79.35680 | 11649 ft | 190 kts | 70° |
| 2026-05-05 21:45 | 8.86495 | -79.34400 | 11649 ft | 190 kts | 70° |
| 2026-05-05 21:46 | 8.86945 | -79.33107 | 11649 ft | 190 kts | 70° |
| 2026-05-05 21:46 | 8.87396 | -79.31820 | 11649 ft | 190 kts | 70° |
| 2026-05-05 21:46 | 8.87845 | -79.30541 | 11649 ft | 190 kts | 70° |
| 2026-05-05 21:46 | 8.88292 | -79.29272 | 11649 ft | 190 kts | 70° |
| 2026-05-05 21:47 | 8.88746 | -79.27982 | 11649 ft | 190 kts | 70° |
| 2026-05-05 21:47 | 8.89202 | -79.26688 | 11649 ft | 190 kts | 70° |
| 2026-05-05 21:47 | 8.89654 | -79.25407 | 11649 ft | 190 kts | 70° |
| 2026-05-05 21:47 | 8.90107 | -79.24123 | 11649 ft | 190 kts | 70° |
| 2026-05-05 21:48 | 8.90563 | -79.22832 | 11649 ft | 190 kts | 70° |
| 2026-05-05 21:48 | 8.91010 | -79.21565 | 11649 ft | 190 kts | 70° |
| 2026-05-05 21:48 | 8.91468 | -79.20272 | 11649 ft | 190 kts | 70° |
| 2026-05-05 21:48 | 8.91921 | -79.18986 | 11649 ft | 190 kts | 70° |
| 2026-05-05 21:49 | 8.92375 | -79.17703 | 11649 ft | 190 kts | 70° |
| 2026-05-05 21:49 | 8.92826 | -79.16425 | 11649 ft | 190 kts | 70° |
| 2026-05-05 21:49 | 8.93276 | -79.15150 | 11649 ft | 190 kts | 70° |
| 2026-05-05 21:49 | 8.93732 | -79.13857 | 11649 ft | 190 kts | 70° |
| 2026-05-05 21:50 | 8.94185 | -79.12574 | 11649 ft | 190 kts | 70° |
| 2026-05-05 21:50 | 8.94634 | -79.11299 | 11649 ft | 190 kts | 70° |
| 2026-05-05 21:50 | 8.95085 | -79.10022 | 11649 ft | 190 kts | 70° |
| 2026-05-05 21:50 | 8.95538 | -79.08738 | 11649 ft | 190 kts | 70° |
| 2026-05-05 21:51 | 8.95997 | -79.07436 | 11649 ft | 190 kts | 70° |
| 2026-05-05 21:51 | 8.96452 | -79.06147 | 11649 ft | 190 kts | 70° |
| 2026-05-05 21:51 | 8.96901 | -79.04874 | 11649 ft | 190 kts | 70° |
| 2026-05-05 21:51 | 8.97356 | -79.03587 | 11649 ft | 190 kts | 70° |
| 2026-05-05 21:52 | 8.98258 | -79.01028 | 11649 ft | 190 kts | 70° |
| 2026-05-05 21:52 | 8.98715 | -78.99733 | 11649 ft | 190 kts | 70° |
| 2026-05-05 21:52 | 8.99165 | -78.98459 | 11649 ft | 190 kts | 70° |
| 2026-05-05 21:53 | 8.99618 | -78.97173 | 11649 ft | 190 kts | 70° |
| 2026-05-05 21:53 | 9.00072 | -78.95886 | 11649 ft | 190 kts | 70° |
| 2026-05-05 21:53 | 9.00526 | -78.94599 | 11649 ft | 190 kts | 70° |
| 2026-05-05 21:53 | 9.00980 | -78.93310 | 11649 ft | 190 kts | 70° |
| 2026-05-05 21:54 | 9.01433 | -78.92025 | 11649 ft | 190 kts | 70° |
| 2026-05-05 21:54 | 9.01888 | -78.90736 | 11649 ft | 190 kts | 70° |
| 2026-05-05 21:54 | 9.02336 | -78.89463 | 11649 ft | 190 kts | 70° |
| 2026-05-05 21:54 | 9.02787 | -78.88184 | 11649 ft | 190 kts | 70° |
| 2026-05-05 21:55 | 9.03242 | -78.86893 | 11649 ft | 190 kts | 70° |
| 2026-05-05 21:55 | 9.03693 | -78.85613 | 11649 ft | 190 kts | 70° |
| 2026-05-05 21:55 | 9.04151 | -78.84315 | 11649 ft | 190 kts | 70° |
| 2026-05-05 21:55 | 9.04601 | -78.83035 | 11649 ft | 190 kts | 70° |
| 2026-05-05 21:56 | 9.05057 | -78.81740 | 11649 ft | 190 kts | 70° |
| 2026-05-05 21:56 | 9.05507 | -78.80465 | 11649 ft | 190 kts | 70° |
| 2026-05-05 21:56 | 9.05960 | -78.79176 | 11649 ft | 190 kts | 70° |
| 2026-05-05 21:56 | 9.06410 | -78.77885 | 11649 ft | 190 kts | 71° |
| 2026-05-05 21:57 | 9.06835 | -78.76575 | 11649 ft | 190 kts | 71° |
| 2026-05-05 21:57 | 9.07209 | -78.75275 | 11649 ft | 190 kts | 76° |
| 2026-05-05 21:57 | 9.07544 | -78.73944 | 11649 ft | 190 kts | 75° |
| 2026-05-05 21:57 | 9.07871 | -78.72646 | 11803 ft | 183 kts | 75° |
| 2026-05-05 21:58 | 9.08201 | -78.71335 | 11677 ft | 192 kts | 75° |
| 2026-05-05 21:58 | 9.08540 | -78.69995 | 11653 ft | 192 kts | 74° |
| 2026-05-05 21:58 | 9.08973 | -78.68720 | 11650 ft | 192 kts | 69° |
| 2026-05-05 21:58 | 9.09445 | -78.67417 | 11649 ft | 191 kts | 69° |
| 2026-05-05 21:59 | 9.09916 | -78.66127 | 11649 ft | 191 kts | 69° |
| 2026-05-05 21:59 | 9.10387 | -78.64838 | 11649 ft | 191 kts | 69° |
| 2026-05-05 21:59 | 9.10839 | -78.63550 | 11649 ft | 191 kts | 72° |
| 2026-05-05 21:59 | 9.11240 | -78.62244 | 11649 ft | 190 kts | 72° |
| 2026-05-05 22:00 | 9.11630 | -78.60938 | 11649 ft | 190 kts | 74° |
| 2026-05-05 22:00 | 9.11992 | -78.59600 | 11649 ft | 190 kts | 74° |
| 2026-05-05 22:00 | 9.12348 | -78.58291 | 11637 ft | 191 kts | 74° |
| 2026-05-05 22:00 | 9.12710 | -78.56955 | 11523 ft | 196 kts | 74° |
| 2026-05-05 22:01 | 9.13075 | -78.55599 | 11397 ft | 193 kts | 75° |
| 2026-05-05 22:01 | 9.13433 | -78.54273 | 11184 ft | 190 kts | 74° |
| 2026-05-05 22:01 | 9.13787 | -78.52957 | 10968 ft | 188 kts | 75° |
| 2026-05-05 22:01 | 9.14120 | -78.51644 | 10751 ft | 187 kts | 75° |
| 2026-05-05 22:02 | 9.14448 | -78.50354 | 10538 ft | 186 kts | 75° |
| 2026-05-05 22:02 | 9.14795 | -78.49071 | 10325 ft | 186 kts | 74° |
| 2026-05-05 22:02 | 9.15145 | -78.47784 | 10112 ft | 185 kts | 74° |
| 2026-05-05 22:02 | 9.15491 | -78.46516 | 9903 ft | 185 kts | 74° |
| 2026-05-05 22:03 | 9.15841 | -78.45232 | 9692 ft | 185 kts | 74° |
| 2026-05-05 22:03 | 9.16194 | -78.43941 | 9480 ft | 185 kts | 74° |
| 2026-05-05 22:03 | 9.16542 | -78.42668 | 9272 ft | 185 kts | 74° |
| 2026-05-05 22:03 | 9.16892 | -78.41389 | 9065 ft | 185 kts | 74° |
| 2026-05-05 22:04 | 9.17240 | -78.40118 | 8859 ft | 182 kts | 74° |
| 2026-05-05 22:04 | 9.17555 | -78.38936 | 8636 ft | 161 kts | 74° |
| 2026-05-05 22:04 | 9.17849 | -78.37865 | 8386 ft | 146 kts | 74° |
| 2026-05-05 22:04 | 9.18122 | -78.36884 | 8135 ft | 142 kts | 74° |
| 2026-05-05 22:05 | 9.18391 | -78.35899 | 7874 ft | 139 kts | 75° |
| 2026-05-05 22:05 | 9.18650 | -78.34943 | 7615 ft | 137 kts | 74° |
| 2026-05-05 22:05 | 9.18903 | -78.34017 | 7359 ft | 135 kts | 74° |
| 2026-05-05 22:05 | 9.19163 | -78.33076 | 7095 ft | 134 kts | 74° |
| 2026-05-05 22:06 | 9.19416 | -78.32153 | 6832 ft | 133 kts | 74° |
| 2026-05-05 22:06 | 9.19668 | -78.31238 | 6569 ft | 132 kts | 74° |
| 2026-05-05 22:06 | 9.19915 | -78.30338 | 6312 ft | 132 kts | 74° |
| 2026-05-05 22:06 | 9.20166 | -78.29424 | 6051 ft | 131 kts | 74° |
| 2026-05-05 22:07 | 9.20413 | -78.28527 | 5795 ft | 131 kts | 74° |
| 2026-05-05 22:07 | 9.20665 | -78.27608 | 5534 ft | 130 kts | 74° |
| 2026-05-05 22:07 | 9.20911 | -78.26714 | 5281 ft | 130 kts | 74° |
| 2026-05-05 22:07 | 9.21158 | -78.25817 | 5027 ft | 130 kts | 74° |
| 2026-05-05 22:08 | 9.21405 | -78.24924 | 4776 ft | 130 kts | 74° |
| 2026-05-05 22:08 | 9.21652 | -78.24025 | 4523 ft | 129 kts | 74° |
| 2026-05-05 22:08 | 9.21899 | -78.23128 | 4271 ft | 129 kts | 74° |
| 2026-05-05 22:08 | 9.22144 | -78.22240 | 4023 ft | 129 kts | 74° |
| 2026-05-05 22:09 | 9.22388 | -78.21354 | 3775 ft | 128 kts | 74° |
| 2026-05-05 22:09 | 9.22630 | -78.20472 | 3529 ft | 127 kts | 74° |
| 2026-05-05 22:09 | 9.22872 | -78.19599 | 3283 ft | 127 kts | 74° |
| 2026-05-05 22:09 | 9.23116 | -78.18716 | 3035 ft | 127 kts | 74° |
| 2026-05-05 22:10 | 9.23355 | -78.17852 | 2788 ft | 123 kts | 74° |
| 2026-05-05 22:10 | 9.23591 | -78.17007 | 2535 ft | 121 kts | 74° |
| 2026-05-05 22:10 | 9.23822 | -78.16169 | 2279 ft | 119 kts | 74° |
| 2026-05-05 22:10 | 9.24026 | -78.15419 | 2066 ft | 98 kts | 75° |
| 2026-05-05 22:11 | 9.24202 | -78.14783 | 1760 ft | 86 kts | 74° |
| 2026-05-05 22:11 | 9.24372 | -78.14216 | 1431 ft | 83 kts | 71° |
| 2026-05-05 22:11 | 9.24751 | -78.13734 | 1168 ft | 90 kts | 28° |
| 2026-05-05 22:11 | 9.25347 | -78.13614 | 898 ft | 81 kts | 357° |
| 2026-05-05 22:12 | 9.25922 | -78.13715 | 473 ft | 86 kts | 342° |
| 2026-05-05 22:12 | 9.26515 | -78.13837 | 201 ft | 84 kts | 347° |
| 2026-05-05 22:12 | 9.27092 | -78.13936 | 20 ft | 79 kts | 346° |
| 2026-05-05 22:12 | 9.27491 | -78.14001 | 5 ft | 24 kts | 340° |